Terminal Aerodrome Forecast
Issued by NWS

Home | Current Version | Previous Version | Text Only | Print | Product List | Glossary On
Versions: 1 2 3 4 5 6 7 8 9 10 11 12
000
FTUS45 KABQ 011132
TAFSAF
TAF
KSAF 011132Z 0112/0212 01008KT P6SM SCT250
     FM011800 25007KT P6SM SCT150
     FM012300 12011KT P6SM VCTS SCT080CB
      TEMPO 0200/0203 VRB25G35KT -TSRA BKN070CB
     FM020300 11014KT P6SM VCSH SCT080 BKN120
     FM020500 01007KT P6SM BKN100=

USA.gov is the U.S. government's official web portal to all federal, state and local government web resources and services.